sensor_id;sensor_type;location;lat;lon;timestamp;P1;durP1;ratioP1;P2;durP2;ratioP2
60896;SDS011;46749;32.932;-117.130;2023-08-17T00:00:38;0.60;;;0.43;;
60896;SDS011;46749;32.932;-117.130;2023-08-17T00:03:04;0.50;;;0.50;;
60896;SDS011;46749;32.932;-117.130;2023-08-17T00:05:31;0.60;;;0.52;;
60896;SDS011;46749;32.932;-117.130;2023-08-17T00:08:01;0.50;;;0.47;;
60896;SDS011;46749;32.932;-117.130;2023-08-17T00:10:28;0.55;;;0.40;;
60896;SDS011;46749;32.932;-117.130;2023-08-17T00:12:54;0.50;;;0.50;;
60896;SDS011;46749;32.932;-117.130;2023-08-17T00:15:20;0.55;;;0.55;;
60896;SDS011;46749;32.932;-117.130;2023-08-17T00:17:47;0.40;;;0.40;;
60896;SDS011;46749;32.932;-117.130;2023-08-17T00:20:13;1.88;;;0.43;;
60896;SDS011;46749;32.932;-117.130;2023-08-17T00:22:39;1.02;;;0.50;;
60896;SDS011;46749;32.932;-117.130;2023-08-17T00:25:05;0.75;;;0.60;;
60896;SDS011;46749;32.932;-117.130;2023-08-17T00:27:33;0.45;;;0.45;;
60896;SDS011;46749;32.932;-117.130;2023-08-17T00:29:59;0.50;;;0.50;;
60896;SDS011;46749;32.932;-117.130;2023-08-17T00:32:25;0.50;;;0.50;;
60896;SDS011;46749;32.932;-117.130;2023-08-17T00:34:51;0.52;;;0.50;;
60896;SDS011;46749;32.932;-117.130;2023-08-17T00:37:17;0.60;;;0.60;;
60896;SDS011;46749;32.932;-117.130;2023-08-17T00:39:44;0.52;;;0.50;;
60896;SDS011;46749;32.932;-117.130;2023-08-17T00:42:10;0.50;;;0.50;;
60896;SDS011;46749;32.932;-117.130;2023-08-17T00:44:36;0.50;;;0.50;;
60896;SDS011;46749;32.932;-117.130;2023-08-17T00:47:02;0.45;;;0.40;;
60896;SDS011;46749;32.932;-117.130;2023-08-17T00:49:30;0.95;;;0.70;;
60896;SDS011;46749;32.932;-117.130;2023-08-17T00:51:57;0.57;;;0.50;;
60896;SDS011;46749;32.932;-117.130;2023-08-17T00:54:23;0.50;;;0.50;;
60896;SDS011;46749;32.932;-117.130;2023-08-17T00:56:51;0.50;;;0.50;;
60896;SDS011;46749;32.932;-117.130;2023-08-17T00:59:20;0.47;;;0.47;;
60896;SDS011;46749;32.932;-117.130;2023-08-17T01:01:47;0.65;;;0.60;;
60896;SDS011;46749;32.932;-117.130;2023-08-17T01:04:14;0.60;;;0.60;;
60896;SDS011;46749;32.932;-117.130;2023-08-17T01:06:40;0.50;;;0.50;;
60896;SDS011;46749;32.932;-117.130;2023-08-17T01:09:06;0.60;;;0.50;;
60896;SDS011;46749;32.932;-117.130;2023-08-17T01:11:52;0.50;;;0.50;;
60896;SDS011;46749;32.932;-117.130;2023-08-17T01:14:27;0.80;;;0.65;;
60896;SDS011;46749;32.932;-117.130;2023-08-17T01:17:11;0.63;;;0.57;;
60896;SDS011;46749;32.932;-117.130;2023-08-17T01:19:43;0.60;;;0.60;;
60896;SDS011;46749;32.932;-117.130;2023-08-17T01:22:11;0.60;;;0.60;;
60896;SDS011;46749;32.932;-117.130;2023-08-17T01:24:40;0.60;;;0.60;;
60896;SDS011;46749;32.932;-117.130;2023-08-17T01:27:06;0.68;;;0.50;;
60896;SDS011;46749;32.932;-117.130;2023-08-17T01:29:32;0.45;;;0.43;;
60896;SDS011;46749;32.932;-117.130;2023-08-17T01:38:06;0.68;;;0.60;;
60896;SDS011;46749;32.932;-117.130;2023-08-17T01:40:35;0.50;;;0.50;;
60896;SDS011;46749;32.932;-117.130;2023-08-17T01:43:02;0.50;;;0.50;;
60896;SDS011;46749;32.932;-117.130;2023-08-17T01:45:29;0.57;;;0.55;;
60896;SDS011;46749;32.932;-117.130;2023-08-17T01:47:55;0.60;;;0.60;;
60896;SDS011;46749;32.932;-117.130;2023-08-17T01:50:22;0.52;;;0.50;;
60896;SDS011;46749;32.932;-117.130;2023-08-17T01:52:48;0.60;;;0.60;;
60896;SDS011;46749;32.932;-117.130;2023-08-17T01:55:16;0.65;;;0.60;;
60896;SDS011;46749;32.932;-117.130;2023-08-17T01:57:42;0.63;;;0.63;;
60896;SDS011;46749;32.932;-117.130;2023-08-17T02:00:08;0.57;;;0.50;;
60896;SDS011;46749;32.932;-117.130;2023-08-17T02:02:36;0.50;;;0.50;;
60896;SDS011;46749;32.932;-117.130;2023-08-17T02:05:02;0.60;;;0.60;;
60896;SDS011;46749;32.932;-117.130;2023-08-17T02:07:29;0.80;;;0.60;;
60896;SDS011;46749;32.932;-117.130;2023-08-17T02:09:55;0.40;;;0.40;;
60896;SDS011;46749;32.932;-117.130;2023-08-17T02:12:21;0.50;;;0.50;;
60896;SDS011;46749;32.932;-117.130;2023-08-17T02:14:47;0.55;;;0.55;;
60896;SDS011;46749;32.932;-117.130;2023-08-17T02:17:14;0.60;;;0.60;;
60896;SDS011;46749;32.932;-117.130;2023-08-17T02:19:42;0.40;;;0.40;;
60896;SDS011;46749;32.932;-117.130;2023-08-17T02:22:09;0.60;;;0.60;;
60896;SDS011;46749;32.932;-117.130;2023-08-17T02:24:36;0.50;;;0.50;;
60896;SDS011;46749;32.932;-117.130;2023-08-17T02:27:02;0.50;;;0.50;;
60896;SDS011;46749;32.932;-117.130;2023-08-17T02:29:28;0.50;;;0.50;;
60896;SDS011;46749;32.932;-117.130;2023-08-17T02:31:55;0.45;;;0.45;;
60896;SDS011;46749;32.932;-117.130;2023-08-17T02:34:21;0.47;;;0.47;;
60896;SDS011;46749;32.932;-117.130;2023-08-17T02:36:47;0.50;;;0.50;;
60896;SDS011;46749;32.932;-117.130;2023-08-17T02:39:13;0.50;;;0.50;;
60896;SDS011;46749;32.932;-117.130;2023-08-17T02:41:39;0.57;;;0.57;;
60896;SDS011;46749;32.932;-117.130;2023-08-17T02:44:06;1.67;;;0.50;;
60896;SDS011;46749;32.932;-117.130;2023-08-17T02:46:32;9.43;;;0.68;;
60896;SDS011;46749;32.932;-117.130;2023-08-17T02:48:58;5.40;;;0.75;;
60896;SDS011;46749;32.932;-117.130;2023-08-17T02:51:24;3.72;;;0.65;;
60896;SDS011;46749;32.932;-117.130;2023-08-17T02:53:50;1.23;;;0.57;;
60896;SDS011;46749;32.932;-117.130;2023-08-17T02:56:17;3.20;;;0.57;;
60896;SDS011;46749;32.932;-117.130;2023-08-17T02:58:43;1.33;;;0.50;;
60896;SDS011;46749;32.932;-117.130;2023-08-17T03:01:09;0.70;;;0.50;;
60896;SDS011;46749;32.932;-117.130;2023-08-17T03:03:35;7.03;;;0.93;;
60896;SDS011;46749;32.932;-117.130;2023-08-17T03:06:02;6.00;;;0.70;;
60896;SDS011;46749;32.932;-117.130;2023-08-17T03:08:28;2.45;;;0.60;;
60896;SDS011;46749;32.932;-117.130;2023-08-17T03:10:55;4.63;;;0.73;;
60896;SDS011;46749;32.932;-117.130;2023-08-17T03:13:21;1.20;;;0.60;;
60896;SDS011;46749;32.932;-117.130;2023-08-17T03:15:47;3.25;;;0.65;;
60896;SDS011;46749;32.932;-117.130;2023-08-17T03:18:13;3.13;;;0.68;;
60896;SDS011;46749;32.932;-117.130;2023-08-17T03:20:39;9.77;;;0.75;;
60896;SDS011;46749;32.932;-117.130;2023-08-17T03:23:05;2.65;;;0.70;;
60896;SDS011;46749;32.932;-117.130;2023-08-17T03:25:32;3.28;;;0.60;;
60896;SDS011;46749;32.932;-117.130;2023-08-17T03:27:59;3.50;;;0.73;;
60896;SDS011;46749;32.932;-117.130;2023-08-17T03:30:26;1.50;;;0.70;;
60896;SDS011;46749;32.932;-117.130;2023-08-17T03:32:52;0.90;;;0.40;;
60896;SDS011;46749;32.932;-117.130;2023-08-17T03:35:18;3.00;;;0.70;;
60896;SDS011;46749;32.932;-117.130;2023-08-17T03:37:44;0.68;;;0.43;;
60896;SDS011;46749;32.932;-117.130;2023-08-17T03:40:10;3.47;;;0.60;;
60896;SDS011;46749;32.932;-117.130;2023-08-17T03:42:37;0.95;;;0.57;;
60896;SDS011;46749;32.932;-117.130;2023-08-17T03:45:03;0.90;;;0.40;;
60896;SDS011;46749;32.932;-117.130;2023-08-17T03:47:30;2.17;;;0.65;;
60896;SDS011;46749;32.932;-117.130;2023-08-17T03:49:56;4.15;;;0.60;;
60896;SDS011;46749;32.932;-117.130;2023-08-17T03:52:22;2.20;;;0.57;;
60896;SDS011;46749;32.932;-117.130;2023-08-17T03:54:48;0.55;;;0.40;;
60896;SDS011;46749;32.932;-117.130;2023-08-17T03:57:15;0.40;;;0.40;;
60896;SDS011;46749;32.932;-117.130;2023-08-17T03:59:41;0.52;;;0.50;;
60896;SDS011;46749;32.932;-117.130;2023-08-17T04:02:07;0.65;;;0.40;;
60896;SDS011;46749;32.932;-117.130;2023-08-17T04:04:33;0.88;;;0.40;;
60896;SDS011;46749;32.932;-117.130;2023-08-17T04:06:59;1.30;;;0.43;;
60896;SDS011;46749;32.932;-117.130;2023-08-17T04:09:25;0.60;;;0.40;;
60896;SDS011;46749;32.932;-117.130;2023-08-17T04:11:51;0.40;;;0.40;;
60896;SDS011;46749;32.932;-117.130;2023-08-17T04:14:18;0.50;;;0.50;;
60896;SDS011;46749;32.932;-117.130;2023-08-17T04:16:44;1.75;;;0.60;;
60896;SDS011;46749;32.932;-117.130;2023-08-17T04:19:10;0.50;;;0.50;;
60896;SDS011;46749;32.932;-117.130;2023-08-17T04:21:36;0.63;;;0.63;;
60896;SDS011;46749;32.932;-117.130;2023-08-17T04:24:02;0.65;;;0.65;;
60896;SDS011;46749;32.932;-117.130;2023-08-17T04:26:29;0.88;;;0.50;;
60896;SDS011;46749;32.932;-117.130;2023-08-17T04:28:55;0.43;;;0.40;;
60896;SDS011;46749;32.932;-117.130;2023-08-17T04:31:21;1.58;;;0.47;;
60896;SDS011;46749;32.932;-117.130;2023-08-17T04:33:47;0.40;;;0.40;;
60896;SDS011;46749;32.932;-117.130;2023-08-17T04:36:13;1.70;;;0.40;;
60896;SDS011;46749;32.932;-117.130;2023-08-17T04:38:40;0.35;;;0.30;;
60896;SDS011;46749;32.932;-117.130;2023-08-17T04:41:06;0.40;;;0.40;;
60896;SDS011;46749;32.932;-117.130;2023-08-17T04:43:32;0.95;;;0.30;;
60896;SDS011;46749;32.932;-117.130;2023-08-17T04:45:58;0.50;;;0.50;;
60896;SDS011;46749;32.932;-117.130;2023-08-17T04:48:24;0.63;;;0.20;;
60896;SDS011;46749;32.932;-117.130;2023-08-17T04:50:51;1.05;;;0.40;;
60896;SDS011;46749;32.932;-117.130;2023-08-17T04:53:17;0.52;;;0.40;;
60896;SDS011;46749;32.932;-117.130;2023-08-17T04:55:43;1.23;;;0.40;;
60896;SDS011;46749;32.932;-117.130;2023-08-17T04:58:09;0.63;;;0.40;;
60896;SDS011;46749;32.932;-117.130;2023-08-17T05:00:35;0.50;;;0.30;;
60896;SDS011;46749;32.932;-117.130;2023-08-17T05:03:03;0.20;;;0.20;;
60896;SDS011;46749;32.932;-117.130;2023-08-17T05:05:29;0.40;;;0.30;;
60896;SDS011;46749;32.932;-117.130;2023-08-17T05:07:55;0.38;;;0.30;;
60896;SDS011;46749;32.932;-117.130;2023-08-17T05:10:21;0.30;;;0.30;;
60896;SDS011;46749;32.932;-117.130;2023-08-17T05:12:47;0.35;;;0.28;;
60896;SDS011;46749;32.932;-117.130;2023-08-17T05:15:14;0.50;;;0.40;;
60896;SDS011;46749;32.932;-117.130;2023-08-17T05:17:40;0.50;;;0.38;;
60896;SDS011;46749;32.932;-117.130;2023-08-17T05:20:06;0.60;;;0.50;;
60896;SDS011;46749;32.932;-117.130;2023-08-17T05:22:33;0.32;;;0.32;;
60896;SDS011;46749;32.932;-117.130;2023-08-17T05:25:01;0.30;;;0.30;;
60896;SDS011;46749;32.932;-117.130;2023-08-17T05:27:28;0.30;;;0.30;;
60896;SDS011;46749;32.932;-117.130;2023-08-17T05:29:54;0.95;;;0.20;;
60896;SDS011;46749;32.932;-117.130;2023-08-17T05:32:20;0.40;;;0.40;;
60896;SDS011;46749;32.932;-117.130;2023-08-17T05:34:47;0.60;;;0.32;;
60896;SDS011;46749;32.932;-117.130;2023-08-17T05:37:13;0.20;;;0.20;;
60896;SDS011;46749;32.932;-117.130;2023-08-17T05:39:40;0.40;;;0.30;;
60896;SDS011;46749;32.932;-117.130;2023-08-17T05:42:06;0.30;;;0.30;;
60896;SDS011;46749;32.932;-117.130;2023-08-17T05:44:33;0.32;;;0.30;;
60896;SDS011;46749;32.932;-117.130;2023-08-17T05:46:59;0.20;;;0.20;;
60896;SDS011;46749;32.932;-117.130;2023-08-17T05:49:25;0.30;;;0.30;;
60896;SDS011;46749;32.932;-117.130;2023-08-17T05:51:51;0.40;;;0.38;;
60896;SDS011;46749;32.932;-117.130;2023-08-17T05:54:17;0.30;;;0.30;;
60896;SDS011;46749;32.932;-117.130;2023-08-17T05:56:43;0.30;;;0.30;;
60896;SDS011;46749;32.932;-117.130;2023-08-17T05:59:12;0.30;;;0.30;;
60896;SDS011;46749;32.932;-117.130;2023-08-17T06:01:39;0.50;;;0.30;;
60896;SDS011;46749;32.932;-117.130;2023-08-17T06:04:06;0.30;;;0.30;;
60896;SDS011;46749;32.932;-117.130;2023-08-17T06:06:32;0.50;;;0.32;;
60896;SDS011;46749;32.932;-117.130;2023-08-17T06:08:59;0.43;;;0.40;;
60896;SDS011;46749;32.932;-117.130;2023-08-17T06:11:25;1.02;;;0.22;;
60896;SDS011;46749;32.932;-117.130;2023-08-17T06:13:51;0.40;;;0.40;;
60896;SDS011;46749;32.932;-117.130;2023-08-17T06:16:17;0.40;;;0.30;;
60896;SDS011;46749;32.932;-117.130;2023-08-17T06:18:44;0.20;;;0.20;;
60896;SDS011;46749;32.932;-117.130;2023-08-17T06:21:10;0.40;;;0.40;;
60896;SDS011;46749;32.932;-117.130;2023-08-17T06:23:36;0.25;;;0.25;;
60896;SDS011;46749;32.932;-117.130;2023-08-17T06:26:02;0.30;;;0.30;;
60896;SDS011;46749;32.932;-117.130;2023-08-17T06:28:28;0.20;;;0.20;;
60896;SDS011;46749;32.932;-117.130;2023-08-17T06:30:55;0.40;;;0.40;;
60896;SDS011;46749;32.932;-117.130;2023-08-17T06:33:21;0.30;;;0.30;;
60896;SDS011;46749;32.932;-117.130;2023-08-17T06:35:48;0.52;;;0.30;;
60896;SDS011;46749;32.932;-117.130;2023-08-17T06:38:14;0.40;;;0.40;;
60896;SDS011;46749;32.932;-117.130;2023-08-17T06:40:41;0.30;;;0.30;;
60896;SDS011;46749;32.932;-117.130;2023-08-17T06:43:07;0.20;;;0.20;;
60896;SDS011;46749;32.932;-117.130;2023-08-17T06:45:34;0.65;;;0.30;;
60896;SDS011;46749;32.932;-117.130;2023-08-17T06:48:00;0.57;;;0.30;;
60896;SDS011;46749;32.932;-117.130;2023-08-17T06:50:27;0.25;;;0.25;;
60896;SDS011;46749;32.932;-117.130;2023-08-17T06:52:53;0.30;;;0.30;;
60896;SDS011;46749;32.932;-117.130;2023-08-17T06:55:20;0.30;;;0.30;;
60896;SDS011;46749;32.932;-117.130;2023-08-17T06:57:46;1.45;;;0.30;;
60896;SDS011;46749;32.932;-117.130;2023-08-17T07:00:15;0.20;;;0.20;;
60896;SDS011;46749;32.932;-117.130;2023-08-17T07:02:41;0.28;;;0.20;;
60896;SDS011;46749;32.932;-117.130;2023-08-17T07:05:07;0.68;;;0.30;;
60896;SDS011;46749;32.932;-117.130;2023-08-17T07:07:35;0.30;;;0.25;;
60896;SDS011;46749;32.932;-117.130;2023-08-17T07:10:01;0.20;;;0.20;;
60896;SDS011;46749;32.932;-117.130;2023-08-17T07:12:28;0.40;;;0.30;;
60896;SDS011;46749;32.932;-117.130;2023-08-17T07:14:54;0.25;;;0.25;;
60896;SDS011;46749;32.932;-117.130;2023-08-17T07:17:20;0.20;;;0.20;;
60896;SDS011;46749;32.932;-117.130;2023-08-17T07:19:46;0.30;;;0.20;;
60896;SDS011;46749;32.932;-117.130;2023-08-17T07:22:12;0.20;;;0.20;;
60896;SDS011;46749;32.932;-117.130;2023-08-17T07:24:38;0.20;;;0.20;;
60896;SDS011;46749;32.932;-117.130;2023-08-17T07:27:05;0.30;;;0.30;;
60896;SDS011;46749;32.932;-117.130;2023-08-17T07:29:31;0.20;;;0.20;;
60896;SDS011;46749;32.932;-117.130;2023-08-17T07:31:57;0.20;;;0.20;;
60896;SDS011;46749;32.932;-117.130;2023-08-17T07:34:26;0.30;;;0.30;;
60896;SDS011;46749;32.932;-117.130;2023-08-17T07:36:54;0.38;;;0.38;;
60896;SDS011;46749;32.932;-117.130;2023-08-17T07:39:20;0.45;;;0.30;;
60896;SDS011;46749;32.932;-117.130;2023-08-17T07:41:46;0.32;;;0.30;;
60896;SDS011;46749;32.932;-117.130;2023-08-17T07:44:12;0.50;;;0.35;;
60896;SDS011;46749;32.932;-117.130;2023-08-17T07:46:38;0.30;;;0.30;;
60896;SDS011;46749;32.932;-117.130;2023-08-17T07:49:05;0.30;;;0.30;;
60896;SDS011;46749;32.932;-117.130;2023-08-17T07:51:31;0.22;;;0.20;;
60896;SDS011;46749;32.932;-117.130;2023-08-17T07:54:02;0.22;;;0.22;;
60896;SDS011;46749;32.932;-117.130;2023-08-17T07:56:28;0.20;;;0.20;;
60896;SDS011;46749;32.932;-117.130;2023-08-17T07:58:54;0.25;;;0.25;;
60896;SDS011;46749;32.932;-117.130;2023-08-17T08:01:20;0.30;;;0.30;;
60896;SDS011;46749;32.932;-117.130;2023-08-17T08:03:46;0.30;;;0.30;;
60896;SDS011;46749;32.932;-117.130;2023-08-17T08:06:12;0.30;;;0.30;;
60896;SDS011;46749;32.932;-117.130;2023-08-17T08:08:41;0.30;;;0.30;;
60896;SDS011;46749;32.932;-117.130;2023-08-17T08:11:07;0.40;;;0.20;;
60896;SDS011;46749;32.932;-117.130;2023-08-17T08:13:35;0.47;;;0.30;;
60896;SDS011;46749;32.932;-117.130;2023-08-17T08:16:01;0.28;;;0.28;;
60896;SDS011;46749;32.932;-117.130;2023-08-17T08:18:27;0.20;;;0.20;;
60896;SDS011;46749;32.932;-117.130;2023-08-17T08:20:53;0.25;;;0.25;;
60896;SDS011;46749;32.932;-117.130;2023-08-17T08:23:19;0.47;;;0.20;;
60896;SDS011;46749;32.932;-117.130;2023-08-17T08:25:46;0.20;;;0.20;;
60896;SDS011;46749;32.932;-117.130;2023-08-17T08:28:12;0.30;;;0.30;;
60896;SDS011;46749;32.932;-117.130;2023-08-17T08:30:38;0.20;;;0.20;;
60896;SDS011;46749;32.932;-117.130;2023-08-17T08:33:04;0.20;;;0.20;;
60896;SDS011;46749;32.932;-117.130;2023-08-17T08:35:30;0.30;;;0.30;;
60896;SDS011;46749;32.932;-117.130;2023-08-17T08:37:58;0.30;;;0.30;;
60896;SDS011;46749;32.932;-117.130;2023-08-17T08:40:28;0.13;;;0.13;;
60896;SDS011;46749;32.932;-117.130;2023-08-17T08:42:55;0.40;;;0.40;;
60896;SDS011;46749;32.932;-117.130;2023-08-17T08:45:23;0.20;;;0.20;;
60896;SDS011;46749;32.932;-117.130;2023-08-17T08:47:50;0.20;;;0.20;;
60896;SDS011;46749;32.932;-117.130;2023-08-17T08:50:18;0.30;;;0.30;;
60896;SDS011;46749;32.932;-117.130;2023-08-17T08:52:50;0.20;;;0.20;;
60896;SDS011;46749;32.932;-117.130;2023-08-17T08:55:24;0.15;;;0.15;;
60896;SDS011;46749;32.932;-117.130;2023-08-17T08:57:54;0.20;;;0.20;;
60896;SDS011;46749;32.932;-117.130;2023-08-17T09:00:22;0.20;;;0.20;;
60896;SDS011;46749;32.932;-117.130;2023-08-17T09:02:50;0.15;;;0.10;;
60896;SDS011;46749;32.932;-117.130;2023-08-17T09:05:17;0.32;;;0.30;;
60896;SDS011;46749;32.932;-117.130;2023-08-17T09:07:44;0.30;;;0.30;;
60896;SDS011;46749;32.932;-117.130;2023-08-17T09:10:13;0.20;;;0.20;;
60896;SDS011;46749;32.932;-117.130;2023-08-17T09:12:42;0.17;;;0.17;;
60896;SDS011;46749;32.932;-117.130;2023-08-17T09:15:09;0.20;;;0.20;;
60896;SDS011;46749;32.932;-117.130;2023-08-17T09:17:35;0.15;;;0.15;;
60896;SDS011;46749;32.932;-117.130;2023-08-17T09:20:02;0.20;;;0.20;;
60896;SDS011;46749;32.932;-117.130;2023-08-17T09:25:05;0.25;;;0.20;;
60896;SDS011;46749;32.932;-117.130;2023-08-17T09:27:32;0.17;;;0.17;;
60896;SDS011;46749;32.932;-117.130;2023-08-17T09:30:03;0.57;;;0.20;;
60896;SDS011;46749;32.932;-117.130;2023-08-17T09:32:30;0.20;;;0.20;;
60896;SDS011;46749;32.932;-117.130;2023-08-17T09:34:57;0.20;;;0.20;;
60896;SDS011;46749;32.932;-117.130;2023-08-17T09:37:26;0.22;;;0.20;;
60896;SDS011;46749;32.932;-117.130;2023-08-17T09:39:53;0.20;;;0.20;;
60896;SDS011;46749;32.932;-117.130;2023-08-17T09:42:21;0.20;;;0.20;;
60896;SDS011;46749;32.932;-117.130;2023-08-17T09:44:51;0.20;;;0.20;;
60896;SDS011;46749;32.932;-117.130;2023-08-17T09:47:18;0.20;;;0.10;;
60896;SDS011;46749;32.932;-117.130;2023-08-17T09:49:53;0.20;;;0.20;;
60896;SDS011;46749;32.932;-117.130;2023-08-17T09:52:20;0.28;;;0.28;;
60896;SDS011;46749;32.932;-117.130;2023-08-17T09:54:47;0.25;;;0.20;;
60896;SDS011;46749;32.932;-117.130;2023-08-17T09:57:13;0.20;;;0.20;;
60896;SDS011;46749;32.932;-117.130;2023-08-17T09:59:41;0.20;;;0.20;;
60896;SDS011;46749;32.932;-117.130;2023-08-17T10:02:20;0.20;;;0.20;;
60896;SDS011;46749;32.932;-117.130;2023-08-17T10:04:52;0.20;;;0.20;;
60896;SDS011;46749;32.932;-117.130;2023-08-17T10:07:19;0.20;;;0.20;;
60896;SDS011;46749;32.932;-117.130;2023-08-17T10:09:53;0.17;;;0.17;;
60896;SDS011;46749;32.932;-117.130;2023-08-17T10:12:27;0.20;;;0.20;;
60896;SDS011;46749;32.932;-117.130;2023-08-17T10:15:07;0.40;;;0.25;;
60896;SDS011;46749;32.932;-117.130;2023-08-17T10:17:39;0.20;;;0.20;;
60896;SDS011;46749;32.932;-117.130;2023-08-17T10:20:14;0.20;;;0.20;;
60896;SDS011;46749;32.932;-117.130;2023-08-17T10:22:44;0.30;;;0.30;;
60896;SDS011;46749;32.932;-117.130;2023-08-17T10:25:17;0.13;;;0.13;;
60896;SDS011;46749;32.932;-117.130;2023-08-17T10:27:45;0.20;;;0.20;;
60896;SDS011;46749;32.932;-117.130;2023-08-17T10:30:12;0.13;;;0.13;;
60896;SDS011;46749;32.932;-117.130;2023-08-17T10:32:39;1.48;;;0.30;;
60896;SDS011;46749;32.932;-117.130;2023-08-17T10:35:10;0.20;;;0.20;;
60896;SDS011;46749;32.932;-117.130;2023-08-17T10:37:37;0.20;;;0.20;;
60896;SDS011;46749;32.932;-117.130;2023-08-17T10:40:04;0.20;;;0.20;;
60896;SDS011;46749;32.932;-117.130;2023-08-17T10:42:32;0.20;;;0.20;;
60896;SDS011;46749;32.932;-117.130;2023-08-17T10:45:47;0.10;;;0.10;;
60896;SDS011;46749;32.932;-117.130;2023-08-17T10:50:37;0.22;;;0.22;;
60896;SDS011;46749;32.932;-117.130;2023-08-17T10:53:08;1.75;;;0.20;;
60896;SDS011;46749;32.932;-117.130;2023-08-17T10:55:39;0.20;;;0.20;;
60896;SDS011;46749;32.932;-117.130;2023-08-17T10:58:07;0.20;;;0.20;;
60896;SDS011;46749;32.932;-117.130;2023-08-17T11:00:35;0.20;;;0.20;;
60896;SDS011;46749;32.932;-117.130;2023-08-17T11:03:06;0.20;;;0.20;;
60896;SDS011;46749;32.932;-117.130;2023-08-17T11:05:37;0.20;;;0.20;;
60896;SDS011;46749;32.932;-117.130;2023-08-17T11:08:03;0.20;;;0.20;;
60896;SDS011;46749;32.932;-117.130;2023-08-17T11:10:30;0.20;;;0.20;;
60896;SDS011;46749;32.932;-117.130;2023-08-17T11:12:58;0.15;;;0.15;;
60896;SDS011;46749;32.932;-117.130;2023-08-17T11:15:34;0.13;;;0.13;;
60896;SDS011;46749;32.932;-117.130;2023-08-17T11:18:03;0.10;;;0.10;;
60896;SDS011;46749;32.932;-117.130;2023-08-17T11:20:33;0.10;;;0.10;;
60896;SDS011;46749;32.932;-117.130;2023-08-17T11:23:00;0.10;;;0.10;;
60896;SDS011;46749;32.932;-117.130;2023-08-17T11:25:27;0.15;;;0.15;;
60896;SDS011;46749;32.932;-117.130;2023-08-17T11:27:54;0.10;;;0.10;;
60896;SDS011;46749;32.932;-117.130;2023-08-17T11:30:21;0.20;;;0.20;;
60896;SDS011;46749;32.932;-117.130;2023-08-17T11:32:50;0.10;;;0.10;;
60896;SDS011;46749;32.932;-117.130;2023-08-17T11:35:18;0.20;;;0.20;;
60896;SDS011;46749;32.932;-117.130;2023-08-17T11:37:45;0.13;;;0.13;;
60896;SDS011;46749;32.932;-117.130;2023-08-17T11:40:11;0.15;;;0.15;;
60896;SDS011;46749;32.932;-117.130;2023-08-17T11:42:38;0.10;;;0.10;;
60896;SDS011;46749;32.932;-117.130;2023-08-17T11:45:04;0.20;;;0.20;;
60896;SDS011;46749;32.932;-117.130;2023-08-17T11:47:35;0.20;;;0.20;;
60896;SDS011;46749;32.932;-117.130;2023-08-17T11:50:03;0.20;;;0.20;;
60896;SDS011;46749;32.932;-117.130;2023-08-17T11:52:30;0.10;;;0.10;;
60896;SDS011;46749;32.932;-117.130;2023-08-17T11:55:00;0.20;;;0.20;;
60896;SDS011;46749;32.932;-117.130;2023-08-17T11:57:27;0.10;;;0.10;;
60896;SDS011;46749;32.932;-117.130;2023-08-17T11:59:55;0.10;;;0.10;;
60896;SDS011;46749;32.932;-117.130;2023-08-17T12:02:25;0.20;;;0.20;;
60896;SDS011;46749;32.932;-117.130;2023-08-17T12:04:54;0.10;;;0.10;;
60896;SDS011;46749;32.932;-117.130;2023-08-17T12:07:21;0.10;;;0.10;;
60896;SDS011;46749;32.932;-117.130;2023-08-17T12:09:50;0.10;;;0.10;;
60896;SDS011;46749;32.932;-117.130;2023-08-17T12:12:19;0.20;;;0.17;;
60896;SDS011;46749;32.932;-117.130;2023-08-17T12:14:50;0.10;;;0.10;;
60896;SDS011;46749;32.932;-117.130;2023-08-17T12:17:17;0.08;;;0.08;;
60896;SDS011;46749;32.932;-117.130;2023-08-17T12:19:44;0.13;;;0.13;;
60896;SDS011;46749;32.932;-117.130;2023-08-17T12:22:15;0.10;;;0.10;;
60896;SDS011;46749;32.932;-117.130;2023-08-17T12:24:43;0.10;;;0.10;;
60896;SDS011;46749;32.932;-117.130;2023-08-17T12:27:09;0.20;;;0.20;;
60896;SDS011;46749;32.932;-117.130;2023-08-17T12:29:48;0.08;;;0.08;;
60896;SDS011;46749;32.932;-117.130;2023-08-17T12:32:18;0.13;;;0.10;;
60896;SDS011;46749;32.932;-117.130;2023-08-17T12:34:46;0.10;;;0.10;;
60896;SDS011;46749;32.932;-117.130;2023-08-17T12:37:17;0.10;;;0.10;;
60896;SDS011;46749;32.932;-117.130;2023-08-17T12:39:46;0.15;;;0.15;;
60896;SDS011;46749;32.932;-117.130;2023-08-17T12:42:13;0.10;;;0.10;;
60896;SDS011;46749;32.932;-117.130;2023-08-17T12:44:43;0.10;;;0.10;;
60896;SDS011;46749;32.932;-117.130;2023-08-17T12:47:09;0.10;;;0.10;;
60896;SDS011;46749;32.932;-117.130;2023-08-17T12:49:36;0.20;;;0.20;;
60896;SDS011;46749;32.932;-117.130;2023-08-17T12:52:02;0.17;;;0.17;;
60896;SDS011;46749;32.932;-117.130;2023-08-17T12:54:28;0.10;;;0.10;;
60896;SDS011;46749;32.932;-117.130;2023-08-17T12:56:55;0.10;;;0.10;;
60896;SDS011;46749;32.932;-117.130;2023-08-17T12:59:21;0.20;;;0.15;;
60896;SDS011;46749;32.932;-117.130;2023-08-17T13:01:47;0.20;;;0.10;;
60896;SDS011;46749;32.932;-117.130;2023-08-17T13:04:13;0.10;;;0.10;;
60896;SDS011;46749;32.932;-117.130;2023-08-17T13:06:39;0.22;;;0.10;;
60896;SDS011;46749;32.932;-117.130;2023-08-17T13:09:05;0.10;;;0.10;;
60896;SDS011;46749;32.932;-117.130;2023-08-17T13:11:32;0.10;;;0.10;;
60896;SDS011;46749;32.932;-117.130;2023-08-17T13:13:58;0.10;;;0.10;;
60896;SDS011;46749;32.932;-117.130;2023-08-17T13:16:24;0.10;;;0.10;;
60896;SDS011;46749;32.932;-117.130;2023-08-17T13:18:50;0.20;;;0.10;;
60896;SDS011;46749;32.932;-117.130;2023-08-17T13:21:16;0.10;;;0.10;;
60896;SDS011;46749;32.932;-117.130;2023-08-17T13:23:43;0.10;;;0.10;;
60896;SDS011;46749;32.932;-117.130;2023-08-17T13:26:10;0.10;;;0.10;;
60896;SDS011;46749;32.932;-117.130;2023-08-17T13:28:36;0.00;;;0.00;;
60896;SDS011;46749;32.932;-117.130;2023-08-17T13:31:03;0.10;;;0.10;;
60896;SDS011;46749;32.932;-117.130;2023-08-17T13:33:29;0.10;;;0.10;;
60896;SDS011;46749;32.932;-117.130;2023-08-17T13:35:55;0.10;;;0.10;;
60896;SDS011;46749;32.932;-117.130;2023-08-17T13:38:22;0.20;;;0.20;;
60896;SDS011;46749;32.932;-117.130;2023-08-17T13:40:48;0.10;;;0.10;;
60896;SDS011;46749;32.932;-117.130;2023-08-17T13:43:14;0.13;;;0.13;;
60896;SDS011;46749;32.932;-117.130;2023-08-17T13:45:40;0.10;;;0.10;;
60896;SDS011;46749;32.932;-117.130;2023-08-17T13:48:07;0.03;;;0.03;;
60896;SDS011;46749;32.932;-117.130;2023-08-17T13:50:35;0.20;;;0.10;;
60896;SDS011;46749;32.932;-117.130;2023-08-17T13:53:02;0.17;;;0.17;;
60896;SDS011;46749;32.932;-117.130;2023-08-17T13:55:29;0.00;;;0.00;;
60896;SDS011;46749;32.932;-117.130;2023-08-17T13:57:55;0.10;;;0.10;;
60896;SDS011;46749;32.932;-117.130;2023-08-17T14:00:28;0.10;;;0.10;;
60896;SDS011;46749;32.932;-117.130;2023-08-17T14:02:54;0.05;;;0.00;;
60896;SDS011;46749;32.932;-117.130;2023-08-17T14:05:20;0.10;;;0.10;;
60896;SDS011;46749;32.932;-117.130;2023-08-17T14:07:47;0.10;;;0.10;;
60896;SDS011;46749;32.932;-117.130;2023-08-17T14:10:14;0.10;;;0.10;;
60896;SDS011;46749;32.932;-117.130;2023-08-17T14:12:40;0.00;;;0.00;;
60896;SDS011;46749;32.932;-117.130;2023-08-17T14:15:06;0.00;;;0.00;;
60896;SDS011;46749;32.932;-117.130;2023-08-17T14:17:33;0.10;;;0.10;;
60896;SDS011;46749;32.932;-117.130;2023-08-17T14:19:59;0.00;;;0.00;;